createdAt,value
2018-12-21T00:01:07.341Z,106.55
2018-12-21T00:03:35.416Z,102.95
2018-12-21T00:06:03.472Z,109.63
2018-12-21T00:08:31.555Z,117.62
2018-12-21T00:11:00.516Z,91.10
2018-12-21T00:13:28.682Z,100.40
2018-12-21T00:15:56.947Z,101.72
2018-12-21T00:18:26.508Z,111.47
2018-12-21T00:20:55.541Z,110.30
2018-12-21T00:23:24.706Z,111.30
2018-12-21T00:25:53.683Z,93.52
2018-12-21T00:28:21.844Z,98.97
2018-12-21T00:30:49.108Z,115.55
2018-12-21T00:33:24.916Z,88.67
2018-12-21T00:35:58.363Z,116.57
2018-12-21T00:38:32.784Z,109.40
2018-12-21T00:41:06.220Z,91.97
2018-12-21T00:43:41.079Z,83.33
2018-12-21T00:46:13.287Z,87.62
2018-12-21T00:48:42.175Z,83.80
2018-12-21T00:51:11.374Z,87.97
2018-12-21T00:53:39.581Z,89.62
2018-12-21T00:56:08.164Z,111.70
2018-12-21T00:58:36.061Z,81.53
2018-12-21T01:01:04.600Z,80.38
2018-12-21T01:03:33.808Z,95.25
2018-12-21T01:06:02.166Z,85.92
2018-12-21T01:08:30.591Z,99.80
2018-12-21T01:11:00.072Z,80.28
2018-12-21T01:13:29.594Z,85.12
2018-12-21T01:15:58.926Z,80.55
2018-12-21T01:18:28.082Z,90.72
2018-12-21T01:20:56.278Z,85.10
2018-12-21T01:23:24.736Z,81.12
2018-12-21T01:25:53.106Z,77.17
2018-12-21T01:28:21.271Z,86.02
2018-12-21T01:30:49.504Z,79.60
2018-12-21T01:33:17.751Z,98.90
2018-12-21T01:35:45.603Z,100.60
2018-12-21T01:38:13.761Z,94.60
2018-12-21T01:40:42.122Z,93.78
2018-12-21T01:43:10.431Z,91.42
2018-12-21T01:45:38.680Z,90.60
2018-12-21T01:48:06.840Z,99.30
2018-12-21T01:50:34.898Z,90.38
2018-12-21T01:53:03.043Z,110.32
2018-12-21T01:55:31.463Z,92.92
2018-12-21T01:57:59.612Z,98.20
2018-12-21T02:00:27.815Z,99.22
2018-12-21T02:02:55.709Z,96.22
2018-12-21T02:05:25.275Z,123.95
2018-12-21T02:07:54.758Z,114.85
2018-12-21T02:10:23.003Z,141.95
2018-12-21T02:12:51.378Z,124.87
2018-12-21T02:15:22.055Z,126.02
2018-12-21T02:17:50.383Z,130.22
2018-12-21T02:20:18.654Z,125.82
2018-12-21T02:22:46.996Z,108.85
2018-12-21T02:25:15.299Z,146.87
2018-12-21T02:27:43.455Z,130.03
2018-12-21T02:30:11.720Z,148.82
2018-12-21T02:32:39.967Z,132.25
2018-12-21T02:35:08.372Z,143.17
2018-12-21T02:37:36.495Z,153.87
2018-12-21T02:40:05.414Z,123.38
2018-12-21T02:42:50.152Z,133.93
2018-12-21T02:45:18.433Z,139.03
2018-12-21T02:47:46.527Z,131.10
2018-12-21T02:50:31.460Z,139.62
2018-12-21T02:52:59.744Z,119.55
2018-12-21T02:55:28.140Z,148.02
2018-12-21T02:57:56.353Z,112.57
2018-12-21T03:00:26.807Z,150.00
2018-12-21T03:02:54.796Z,111.75
2018-12-21T03:05:22.863Z,112.28
2018-12-21T03:07:51.127Z,107.80
2018-12-21T03:10:19.372Z,112.65
2018-12-21T03:12:48.530Z,118.15
2018-12-21T03:15:16.790Z,108.45
2018-12-21T03:17:45.918Z,109.42
2018-12-21T03:20:15.195Z,109.60
2018-12-21T03:22:43.244Z,140.73
2018-12-21T03:25:11.301Z,111.72
2018-12-21T03:27:39.310Z,112.42
2018-12-21T03:30:09.081Z,115.85
2018-12-21T03:32:38.330Z,115.35
2018-12-21T03:35:06.657Z,113.40
2018-12-21T03:37:34.658Z,130.78
2018-12-21T03:40:02.761Z,115.15
2018-12-21T03:42:31.192Z,130.05
2018-12-21T03:44:59.363Z,97.95
2018-12-21T03:47:28.492Z,97.33
2018-12-21T03:49:56.464Z,102.15
2018-12-21T03:52:24.807Z,95.75
2018-12-21T03:54:54.451Z,110.60
2018-12-21T03:57:23.244Z,88.70
2018-12-21T03:59:52.238Z,89.50
2018-12-21T04:02:20.991Z,85.32
2018-12-21T04:04:49.668Z,106.35
2018-12-21T04:07:18.674Z,88.00
2018-12-21T04:09:46.958Z,83.90
2018-12-21T04:12:15.034Z,98.65
2018-12-21T04:14:45.937Z,101.92
2018-12-21T04:17:14.406Z,85.38
2018-12-21T04:19:42.556Z,102.75
2018-12-21T04:22:10.859Z,97.60
2018-12-21T04:24:39.891Z,107.65
2018-12-21T04:27:08.290Z,99.47
2018-12-21T04:29:36.558Z,89.97
2018-12-21T04:32:04.715Z,96.80
2018-12-21T04:34:33.865Z,91.47
2018-12-21T04:37:01.791Z,99.32
2018-12-21T04:39:29.974Z,85.77
2018-12-21T04:41:59.231Z,96.32
2018-12-21T04:44:27.791Z,92.72
2018-12-21T04:46:56.133Z,87.42
2018-12-21T04:49:24.469Z,92.90
2018-12-21T04:51:52.616Z,90.65
2018-12-21T04:54:20.930Z,101.10
2018-12-21T04:56:49.284Z,94.07
2018-12-21T04:59:17.799Z,85.25
2018-12-21T05:01:45.808Z,100.02
2018-12-21T05:04:19.729Z,101.87
2018-12-21T05:06:44.295Z,103.15
2018-12-21T05:09:12.637Z,91.02
2018-12-21T05:11:40.907Z,93.30
2018-12-21T05:14:09.210Z,107.60
2018-12-21T05:16:37.311Z,101.72
2018-12-21T05:19:05.275Z,78.92
2018-12-21T05:21:33.618Z,101.12
2018-12-21T05:24:01.911Z,97.57
2018-12-21T05:26:30.929Z,98.85
2018-12-21T05:28:59.289Z,88.37
2018-12-21T05:31:28.403Z,100.53
2018-12-21T05:33:56.998Z,104.50
2018-12-21T05:36:25.215Z,125.53
2018-12-21T05:38:54.532Z,114.40
2018-12-21T05:41:22.659Z,92.95
2018-12-21T05:43:50.863Z,102.82
2018-12-21T05:46:19.983Z,91.70
2018-12-21T05:48:48.363Z,96.17
2018-12-21T05:51:16.746Z,91.95
2018-12-21T05:53:48.056Z,103.87
2018-12-21T05:56:16.555Z,112.60
2018-12-21T05:58:44.702Z,101.72
2018-12-21T06:01:13.412Z,97.55
2018-12-21T06:03:41.660Z,96.67
2018-12-21T06:06:10.788Z,109.60
2018-12-21T06:08:39.004Z,102.22
2018-12-21T06:11:07.441Z,86.53
2018-12-21T06:13:35.623Z,119.97
2018-12-21T06:16:04.763Z,100.30
2018-12-21T06:18:32.873Z,116.67
2018-12-21T06:21:01.299Z,116.03
2018-12-21T06:23:29.647Z,126.45
2018-12-21T06:25:57.789Z,104.43
2018-12-21T06:28:26.080Z,102.82
2018-12-21T06:30:54.347Z,101.65
2018-12-21T06:33:23.384Z,100.22
2018-12-21T06:35:51.652Z,103.62
2018-12-21T06:38:20.866Z,94.45
2018-12-21T06:40:48.862Z,109.87
2018-12-21T06:43:18.092Z,116.05
2018-12-21T06:45:49.902Z,106.25
2018-12-21T06:48:17.972Z,103.47
2018-12-21T06:50:46.391Z,105.67
2018-12-21T06:53:18.022Z,111.83
2018-12-21T06:55:44.399Z,111.65
2018-12-21T06:58:12.563Z,94.32
2018-12-21T07:00:40.512Z,107.67
2018-12-21T07:03:16.881Z,96.12
2018-12-21T07:05:40.578Z,98.33
2018-12-21T07:08:08.623Z,111.47
2018-12-21T07:10:40.650Z,107.03
2018-12-21T07:13:10.283Z,124.07
2018-12-21T07:15:38.415Z,120.75
2018-12-21T07:18:07.344Z,123.62
2018-12-21T07:20:36.432Z,152.87
2018-12-21T07:23:04.463Z,114.57
2018-12-21T07:25:33.255Z,169.65
2018-12-21T07:28:01.533Z,118.37
2018-12-21T07:30:29.788Z,124.90
2018-12-21T07:32:57.844Z,132.27
2018-12-21T07:35:26.139Z,111.90
2018-12-21T07:37:54.080Z,122.25
2018-12-21T07:40:22.437Z,118.33
2018-12-21T07:42:50.655Z,113.15
2018-12-21T07:45:20.700Z,109.07
2018-12-21T07:47:48.871Z,103.53
2018-12-21T07:50:17.147Z,109.00
2018-12-21T07:52:46.891Z,129.60
2018-12-21T07:55:15.092Z,119.10
2018-12-21T07:57:54.364Z,115.85
2018-12-21T08:00:22.601Z,139.88
2018-12-21T08:02:50.555Z,128.30
2018-12-21T08:05:18.722Z,116.12
2018-12-21T08:07:47.056Z,118.85
2018-12-21T08:10:18.632Z,121.65
2018-12-21T08:12:46.872Z,131.82
2018-12-21T08:15:15.416Z,121.77
2018-12-21T08:17:43.550Z,124.92
2018-12-21T08:20:11.947Z,130.80
2018-12-21T08:22:41.075Z,124.20
2018-12-21T08:25:09.463Z,128.05
2018-12-21T08:27:37.733Z,156.12
2018-12-21T08:30:07.805Z,191.70
2018-12-21T08:32:35.908Z,144.90
2018-12-21T08:35:04.517Z,128.47
2018-12-21T08:37:32.956Z,111.40
2018-12-21T08:40:00.888Z,122.35
2018-12-21T08:42:29.190Z,129.68
2018-12-21T08:44:57.756Z,141.85
2018-12-21T08:47:26.040Z,128.95
2018-12-21T08:49:54.279Z,119.40
2018-12-21T08:52:23.259Z,118.77
2018-12-21T08:54:51.531Z,129.12
2018-12-21T08:57:19.826Z,139.60
2018-12-21T08:59:48.263Z,130.37
2018-12-21T09:02:18.479Z,119.35
2018-12-21T09:04:47.574Z,148.85
2018-12-21T09:07:15.764Z,123.70
2018-12-21T09:09:44.203Z,340.40
2018-12-21T09:12:12.368Z,265.40
2018-12-21T09:14:41.515Z,167.45
2018-12-21T09:17:10.483Z,118.50
2018-12-21T09:19:38.823Z,123.38
2018-12-21T09:22:07.176Z,117.33
2018-12-21T09:24:36.259Z,133.22
2018-12-21T09:27:04.585Z,144.50
2018-12-21T09:29:32.475Z,129.65
2018-12-21T09:32:05.055Z,128.85
2018-12-21T09:34:32.021Z,134.25
2018-12-21T09:37:00.151Z,140.60
2018-12-21T09:39:29.255Z,145.38
2018-12-21T09:41:58.357Z,137.00
2018-12-21T09:44:26.541Z,138.88
2018-12-21T09:46:54.799Z,141.97
2018-12-21T09:49:23.100Z,129.80
2018-12-21T09:51:51.126Z,120.25
2018-12-21T09:54:19.182Z,119.55
2018-12-21T09:56:47.512Z,129.87
2018-12-21T09:59:16.659Z,120.72
2018-12-21T10:01:46.671Z,125.07
2018-12-21T10:04:16.981Z,131.32
2018-12-21T10:06:45.128Z,120.25
2018-12-21T10:09:30.311Z,139.25
2018-12-21T10:11:59.831Z,130.87
2018-12-21T10:14:28.376Z,130.70
2018-12-21T10:16:56.747Z,129.45
2018-12-21T10:19:24.872Z,153.30
2018-12-21T10:21:52.823Z,131.32
2018-12-21T10:24:21.194Z,143.25
2018-12-21T10:26:49.156Z,165.03
2018-12-21T10:29:19.255Z,147.65
2018-12-21T10:31:47.654Z,143.45
2018-12-21T10:34:15.774Z,135.78
2018-12-21T10:36:44.713Z,146.65
2018-12-21T10:39:12.746Z,150.03
2018-12-21T10:41:41.132Z,143.60
2018-12-21T10:44:09.403Z,131.95
2018-12-21T10:46:37.627Z,141.32
2018-12-21T10:49:06.364Z,139.60
2018-12-21T10:51:34.303Z,166.82
2018-12-21T10:54:02.451Z,139.92
2018-12-21T10:59:25.951Z,149.40
2018-12-21T11:01:54.003Z,141.82
2018-12-21T11:04:23.664Z,140.77
2018-12-21T11:06:51.770Z,143.80
2018-12-21T11:09:19.931Z,137.75
2018-12-21T11:11:47.993Z,144.65
2018-12-21T11:14:16.107Z,165.12
2018-12-21T11:16:44.295Z,161.12
2018-12-21T11:19:12.703Z,154.63
2018-12-21T11:21:40.932Z,153.62
2018-12-21T11:24:09.621Z,159.40
2018-12-21T11:26:37.537Z,175.87
2018-12-21T11:29:05.775Z,179.93
2018-12-21T11:31:34.811Z,168.15
2018-12-21T11:34:03.311Z,158.82
2018-12-21T11:36:31.317Z,173.13
2018-12-21T11:38:59.640Z,177.70
2018-12-21T11:41:27.898Z,175.93
2018-12-21T11:43:56.258Z,179.55
2018-12-21T11:46:25.322Z,174.60
2018-12-21T11:48:53.794Z,180.05
2018-12-21T11:54:19.746Z,188.95
2018-12-21T11:56:47.674Z,177.25
2018-12-21T11:59:15.808Z,171.00
2018-12-21T12:01:44.006Z,168.97
2018-12-21T12:04:12.227Z,169.62
2018-12-21T12:06:41.439Z,176.80
2018-12-21T12:09:09.774Z,180.97
2018-12-21T12:11:37.956Z,175.42
2018-12-21T12:14:06.953Z,164.18
2018-12-21T12:16:34.923Z,161.35
2018-12-21T12:19:03.180Z,156.87
2018-12-21T12:21:32.670Z,165.97
2018-12-21T12:24:01.883Z,176.95
2018-12-21T12:26:30.676Z,156.25
2018-12-21T12:28:58.741Z,155.45
2018-12-21T12:31:27.065Z,179.68
2018-12-21T12:33:58.159Z,144.40
2018-12-21T12:36:27.318Z,178.42
2018-12-21T12:38:55.438Z,179.82
2018-12-21T12:41:23.516Z,164.28
2018-12-21T12:43:52.528Z,143.37
2018-12-21T12:46:21.655Z,141.65
2018-12-21T12:48:49.871Z,144.32
2018-12-21T12:51:18.063Z,146.28
2018-12-21T12:53:46.549Z,132.52
2018-12-21T12:56:16.671Z,152.05
2018-12-21T12:58:44.630Z,141.60
2018-12-21T13:01:12.599Z,129.57
2018-12-21T13:03:40.843Z,156.50
2018-12-21T13:06:09.193Z,146.10
2018-12-21T13:08:38.953Z,155.45
2018-12-21T13:11:08.568Z,158.00
2018-12-21T13:13:36.716Z,139.52
2018-12-21T13:16:04.966Z,148.55
2018-12-21T13:18:33.325Z,149.30
2018-12-21T13:21:01.587Z,146.35
2018-12-21T13:23:29.853Z,143.00
2018-12-21T13:25:57.849Z,138.35
2018-12-21T13:28:26.052Z,133.80
2018-12-21T13:30:55.438Z,143.60
2018-12-21T13:33:23.849Z,154.42
2018-12-21T13:35:51.937Z,165.57
2018-12-21T13:38:20.047Z,140.55
2018-12-21T13:40:48.096Z,136.47
2018-12-21T13:43:16.363Z,139.00
2018-12-21T13:45:44.707Z,138.28
2018-12-21T13:48:13.120Z,141.22
2018-12-21T13:50:41.214Z,145.25
2018-12-21T13:53:09.112Z,153.53
2018-12-21T13:55:37.482Z,127.82
2018-12-21T13:58:05.653Z,139.35
2018-12-21T14:00:33.543Z,144.40
2018-12-21T14:03:01.804Z,155.50
2018-12-21T14:05:30.127Z,140.55
2018-12-21T14:07:58.549Z,137.47
2018-12-21T14:10:27.804Z,154.15
2018-12-21T14:12:55.746Z,150.38
2018-12-21T14:15:23.983Z,146.93
2018-12-21T14:17:52.264Z,144.77
2018-12-21T14:20:20.686Z,159.90
2018-12-21T14:22:48.637Z,162.18
2018-12-21T14:25:16.844Z,149.47
2018-12-21T14:27:44.915Z,155.93
2018-12-21T14:30:12.872Z,158.22
2018-12-21T14:32:41.170Z,187.55
2018-12-21T14:35:09.150Z,174.18
2018-12-21T14:37:37.299Z,168.95
2018-12-21T14:40:06.172Z,187.07
2018-12-21T14:42:34.239Z,184.85
2018-12-21T14:45:02.337Z,170.43
2018-12-21T14:47:30.339Z,174.93
2018-12-21T14:49:59.172Z,183.30
2018-12-21T14:52:27.409Z,184.37
2018-12-21T14:54:55.580Z,191.40
2018-12-21T14:57:23.645Z,189.20
2018-12-21T14:59:51.821Z,176.20
2018-12-21T15:02:20.100Z,191.53
2018-12-21T15:04:48.291Z,182.97
2018-12-21T15:07:16.557Z,214.70
2018-12-21T15:09:44.732Z,197.82
2018-12-21T15:12:12.763Z,195.82
2018-12-21T15:14:40.961Z,208.57
2018-12-21T15:17:09.368Z,214.45
2018-12-21T15:19:37.538Z,186.12
2018-12-21T15:22:06.676Z,192.68
2018-12-21T15:24:34.988Z,213.62
2018-12-21T15:27:03.271Z,206.50
2018-12-21T15:29:31.431Z,183.10
2018-12-21T15:31:59.961Z,201.58
2018-12-21T15:34:28.021Z,185.45
2018-12-21T15:36:56.346Z,201.45
2018-12-21T15:39:24.712Z,210.13
2018-12-21T15:41:52.936Z,211.22
2018-12-21T15:44:21.217Z,224.60
2018-12-21T15:46:49.396Z,202.55
2018-12-21T15:49:17.668Z,202.30
2018-12-21T15:51:45.955Z,166.35
2018-12-21T15:54:14.387Z,208.05
2018-12-21T15:56:42.665Z,218.97
2018-12-21T15:59:10.999Z,197.68
2018-12-21T16:01:40.295Z,205.00
2018-12-21T16:04:09.474Z,194.50
2018-12-21T16:06:37.628Z,187.03
2018-12-21T16:09:07.277Z,200.75
2018-12-21T16:11:35.566Z,203.77
2018-12-21T16:14:04.058Z,178.65
2018-12-21T16:16:32.073Z,209.47
2018-12-21T16:19:00.248Z,212.88
2018-12-21T16:21:28.659Z,186.35
2018-12-21T16:23:56.947Z,205.67
2018-12-21T16:26:25.136Z,204.80
2018-12-21T16:28:54.643Z,201.58
2018-12-21T16:31:23.761Z,222.00
2018-12-21T16:33:51.953Z,233.82
2018-12-21T16:36:20.236Z,227.05
2018-12-21T16:38:49.336Z,221.40
2018-12-21T16:41:17.264Z,222.10
2018-12-21T16:43:45.580Z,228.07
2018-12-21T16:46:13.608Z,215.75
2018-12-21T16:48:41.660Z,218.88
2018-12-21T16:51:10.011Z,223.90
2018-12-21T16:53:37.967Z,216.73
2018-12-21T16:56:12.423Z,209.80
2018-12-21T16:58:35.907Z,231.17
2018-12-21T17:01:05.100Z,225.00
2018-12-21T17:03:33.487Z,213.77
2018-12-21T17:06:01.688Z,211.82
2018-12-21T17:08:29.977Z,197.90
2018-12-21T17:10:57.910Z,190.97
2018-12-21T17:13:26.231Z,214.50
2018-12-21T17:15:55.367Z,200.57
2018-12-21T17:18:25.663Z,199.15
2018-12-21T17:20:53.650Z,196.85
2018-12-21T17:23:21.590Z,209.57
2018-12-21T17:25:49.971Z,204.82
2018-12-21T17:28:18.739Z,211.57
2018-12-21T17:30:46.944Z,211.72
2018-12-21T17:33:15.043Z,219.90
2018-12-21T17:35:46.394Z,217.60
2018-12-21T17:38:31.278Z,229.65
2018-12-21T17:40:59.632Z,211.37
2018-12-21T17:43:27.903Z,212.27
2018-12-21T17:45:56.172Z,240.87
2018-12-21T17:48:24.444Z,245.48
2018-12-21T17:50:52.785Z,246.95
2018-12-21T17:53:20.729Z,250.38
2018-12-21T17:55:48.984Z,246.85
2018-12-21T17:58:17.100Z,224.75
2018-12-21T18:00:45.517Z,224.77
2018-12-21T18:03:36.362Z,200.18
2018-12-21T18:06:04.499Z,185.52
2018-12-21T18:08:32.784Z,188.55
2018-12-21T18:11:01.908Z,180.07
2018-12-21T18:13:30.284Z,200.05
2018-12-21T18:15:58.336Z,198.32
2018-12-21T18:18:26.656Z,196.75
2018-12-21T18:20:57.005Z,201.50
2018-12-21T18:23:26.838Z,213.25
2018-12-21T18:25:54.862Z,190.75
2018-12-21T18:28:26.991Z,196.72
2018-12-21T18:31:01.554Z,191.53
2018-12-21T18:33:29.895Z,215.30
2018-12-21T18:35:58.092Z,228.00
2018-12-21T18:38:28.698Z,231.07
2018-12-21T18:40:56.788Z,183.65
2018-12-21T18:43:25.041Z,172.98
2018-12-21T18:45:53.303Z,188.78
2018-12-21T18:48:21.598Z,167.03
2018-12-21T18:50:49.909Z,169.15
2018-12-21T18:53:18.050Z,170.07
2018-12-21T18:55:48.879Z,183.82
2018-12-21T18:58:18.240Z,192.90
2018-12-21T19:00:46.257Z,187.72
2018-12-21T19:03:14.487Z,180.57
2018-12-21T19:05:42.764Z,192.50
2018-12-21T19:08:10.963Z,178.78
2018-12-21T19:10:38.895Z,263.73
2018-12-21T19:13:07.283Z,182.30
2018-12-21T19:15:35.589Z,334.90
2018-12-21T19:18:03.908Z,198.02
2018-12-21T19:20:32.016Z,493.97
2018-12-21T19:23:00.342Z,316.98
2018-12-21T19:25:28.532Z,284.70
2018-12-21T19:27:56.867Z,282.32
2018-12-21T19:30:25.360Z,246.70
2018-12-21T19:32:55.191Z,258.45
2018-12-21T19:35:27.631Z,329.93
2018-12-21T19:37:53.670Z,273.52
2018-12-21T19:40:21.997Z,242.07
2018-12-21T19:42:50.180Z,320.33
2018-12-21T19:45:18.400Z,267.00
2018-12-21T19:47:46.642Z,265.57
2018-12-21T19:50:14.599Z,307.37
2018-12-21T19:52:42.975Z,352.48
2018-12-21T19:55:22.860Z,375.00
2018-12-21T19:57:52.176Z,323.60
2018-12-21T20:00:20.473Z,294.73
2018-12-21T20:02:48.770Z,329.35
2018-12-21T20:05:17.124Z,279.23
2018-12-21T20:07:45.315Z,289.15
2018-12-21T20:10:13.540Z,292.37
2018-12-21T20:12:41.983Z,309.07
2018-12-21T20:15:10.234Z,287.95
2018-12-21T20:17:38.288Z,300.57
2018-12-21T20:20:08.931Z,274.18
2018-12-21T20:22:37.095Z,277.22
2018-12-21T20:25:08.183Z,305.70
2018-12-21T20:27:36.360Z,254.23
2018-12-21T20:30:06.312Z,294.90
2018-12-21T20:32:35.864Z,256.27
2018-12-21T20:35:04.864Z,268.42
2018-12-21T20:37:49.983Z,330.92
2018-12-21T20:40:18.220Z,311.15
2018-12-21T20:42:46.416Z,348.25
2018-12-21T20:45:14.296Z,376.75
2018-12-21T20:47:43.155Z,300.82
2018-12-21T20:50:14.169Z,303.52
2018-12-21T20:52:43.394Z,267.35
2018-12-21T20:55:11.655Z,281.82
2018-12-21T20:57:41.076Z,255.80
2018-12-21T21:00:12.381Z,277.93
2018-12-21T21:02:40.562Z,266.60
2018-12-21T21:05:09.750Z,270.17
2018-12-21T21:07:37.988Z,250.30
2018-12-21T21:10:09.127Z,250.15
2018-12-21T21:12:37.436Z,262.50
2018-12-21T21:15:07.375Z,245.57
2018-12-21T21:17:36.764Z,228.10
2018-12-21T21:20:08.232Z,244.07
2018-12-21T21:22:36.552Z,268.37
2018-12-21T21:25:04.956Z,227.13
2018-12-21T21:27:33.032Z,242.40
2018-12-21T21:30:01.328Z,254.65
2018-12-21T21:32:29.695Z,273.82
2018-12-21T21:34:58.007Z,235.10
2018-12-21T21:37:26.521Z,246.32
2018-12-21T21:40:15.076Z,226.07
2018-12-21T21:42:43.356Z,225.38
2018-12-21T21:45:11.500Z,244.60
2018-12-21T21:47:40.543Z,212.08
2018-12-21T21:50:09.128Z,215.85
2018-12-21T21:52:37.067Z,201.65
2018-12-21T21:55:05.275Z,186.37
2018-12-21T21:57:39.183Z,196.18
2018-12-21T22:00:08.224Z,205.32
2018-12-21T22:02:37.517Z,183.68
2018-12-21T22:05:05.471Z,230.67
2018-12-21T22:07:33.687Z,193.10
2018-12-21T22:10:01.983Z,187.50
2018-12-21T22:12:30.309Z,218.95
2018-12-21T22:14:59.435Z,240.72
2018-12-21T22:17:27.607Z,265.73
2018-12-21T22:19:55.573Z,248.60
2018-12-21T22:22:23.807Z,249.47
2018-12-21T22:24:52.205Z,251.40
2018-12-21T22:27:20.471Z,318.73
2018-12-21T22:29:48.718Z,293.33
2018-12-21T22:32:17.034Z,304.02
2018-12-21T22:34:45.329Z,226.05
2018-12-21T22:37:13.465Z,201.45
2018-12-21T22:39:41.771Z,237.75
2018-12-21T22:42:10.013Z,220.25
2018-12-21T22:44:38.322Z,234.30
2018-12-21T22:47:06.689Z,209.55
2018-12-21T22:49:34.971Z,210.48
2018-12-21T22:52:05.058Z,236.30
2018-12-21T22:54:33.072Z,200.68
2018-12-21T22:57:01.407Z,263.65
2018-12-21T22:59:29.629Z,249.07
2018-12-21T23:01:57.867Z,278.07
2018-12-21T23:04:26.179Z,245.00
2018-12-21T23:06:54.441Z,307.83
2018-12-21T23:09:23.684Z,325.18
2018-12-21T23:11:53.104Z,302.15
2018-12-21T23:14:21.254Z,283.00
2018-12-21T23:16:49.597Z,421.80
2018-12-21T23:19:17.996Z,193.30
2018-12-21T23:21:47.352Z,176.65
2018-12-21T23:24:17.534Z,364.17
2018-12-21T23:26:47.607Z,239.48
2018-12-21T23:29:15.931Z,201.18
2018-12-21T23:31:44.237Z,261.57
2018-12-21T23:34:13.302Z,219.90
2018-12-21T23:36:41.502Z,316.08
2018-12-21T23:39:09.800Z,293.30
2018-12-21T23:41:38.238Z,230.95
2018-12-21T23:44:06.458Z,228.37
2018-12-21T23:46:36.818Z,347.10
2018-12-21T23:49:06.155Z,236.10
2018-12-21T23:51:34.464Z,216.63
2018-12-21T23:54:02.826Z,205.75
2018-12-21T23:56:34.685Z,226.60
2018-12-21T23:59:02.991Z,217.85
